createdAt,value
2018-11-02T00:01:27.013Z,12.73
2018-11-02T00:03:55.826Z,12.47
2018-11-02T00:06:24.378Z,12.17
2018-11-02T00:08:52.986Z,13.10
2018-11-02T00:11:21.626Z,12.57
2018-11-02T00:13:51.327Z,12.60
2018-11-02T00:16:20.335Z,12.10
2018-11-02T00:18:48.857Z,12.70
2018-11-02T00:21:17.535Z,12.30
2018-11-02T00:23:46.017Z,11.80
2018-11-02T00:26:14.446Z,12.30
2018-11-02T00:28:42.897Z,13.03
2018-11-02T00:31:11.562Z,12.13
2018-11-02T00:33:40.029Z,12.47
2018-11-02T00:36:08.499Z,12.27
2018-11-02T00:38:36.962Z,12.37
2018-11-02T00:41:05.767Z,12.23
2018-11-02T00:43:34.238Z,12.77
2018-11-02T00:46:02.718Z,11.43
2018-11-02T00:48:31.227Z,12.43
2018-11-02T00:50:59.661Z,11.77
2018-11-02T00:53:28.114Z,12.00
2018-11-02T00:55:56.579Z,11.47
2018-11-02T00:58:25.202Z,12.23
2018-11-02T01:00:53.659Z,11.07
2018-11-02T01:03:22.133Z,11.17
2018-11-02T01:05:50.825Z,11.13
2018-11-02T01:08:19.321Z,10.60
2018-11-02T01:10:47.942Z,10.57
2018-11-02T01:13:16.410Z,10.70
2018-11-02T01:15:44.863Z,10.40
2018-11-02T01:18:13.688Z,10.13
2018-11-02T01:20:42.158Z,10.20
2018-11-02T01:23:10.812Z,10.20
2018-11-02T01:25:39.442Z,10.00
2018-11-02T01:28:07.882Z,9.77
2018-11-02T01:30:36.355Z,9.37
2018-11-02T01:33:04.979Z,10.10
2018-11-02T01:35:33.434Z,10.03
2018-11-02T01:38:01.886Z,8.90
2018-11-02T01:40:30.362Z,9.70
2018-11-02T01:42:58.815Z,9.53
2018-11-02T01:45:28.098Z,9.43
2018-11-02T01:47:56.544Z,9.30
2018-11-02T01:50:25.366Z,9.73
2018-11-02T01:52:53.806Z,10.07
2018-11-02T01:55:22.269Z,10.60
2018-11-02T01:57:50.703Z,9.60
2018-11-02T02:00:19.179Z,9.73
2018-11-02T02:02:47.788Z,10.00
2018-11-02T02:05:16.260Z,10.00
2018-11-02T02:07:44.691Z,9.47
2018-11-02T02:10:13.321Z,9.33
2018-11-02T02:12:41.790Z,8.87
2018-11-02T02:15:10.882Z,10.27
2018-11-02T02:17:39.357Z,8.30
2018-11-02T02:20:08.682Z,8.77
2018-11-02T02:22:37.166Z,8.77
2018-11-02T02:25:06.534Z,7.70
2018-11-02T02:27:37.438Z,7.17
2018-11-02T02:30:11.503Z,6.93
2018-11-02T02:32:40.220Z,6.90
2018-11-02T02:35:10.014Z,6.03
2018-11-02T02:37:39.607Z,6.67
2018-11-02T02:40:09.945Z,6.03
2018-11-02T02:42:38.622Z,5.93
2018-11-02T02:45:09.014Z,6.13
2018-11-02T02:47:37.686Z,5.20
2018-11-02T02:50:08.214Z,6.00
2018-11-02T02:52:36.650Z,5.87
2018-11-02T02:55:06.008Z,5.67
2018-11-02T02:57:34.889Z,5.53
2018-11-02T03:00:03.425Z,5.27
2018-11-02T03:02:31.862Z,5.70
2018-11-02T03:05:00.312Z,5.63
2018-11-02T03:07:29.306Z,5.60
2018-11-02T03:09:57.758Z,5.77
2018-11-02T03:12:26.208Z,6.03
2018-11-02T03:14:54.655Z,5.70
2018-11-02T03:17:23.083Z,6.77
2018-11-02T03:19:51.541Z,6.37
2018-11-02T03:22:20.274Z,6.07
2018-11-02T03:24:48.911Z,6.07
2018-11-02T03:27:17.451Z,6.50
2018-11-02T03:29:46.026Z,6.20
2018-11-02T03:32:14.546Z,6.10
2018-11-02T03:34:42.996Z,6.50
2018-11-02T03:37:11.471Z,6.97
2018-11-02T03:39:40.124Z,7.27
2018-11-02T03:42:08.814Z,7.43
2018-11-02T03:44:37.248Z,7.67
2018-11-02T03:47:05.766Z,7.60
2018-11-02T03:49:34.210Z,7.43
2018-11-02T03:52:02.687Z,7.30
2018-11-02T03:54:31.434Z,7.80
2018-11-02T03:56:59.950Z,8.10
2018-11-02T03:59:28.517Z,8.27
2018-11-02T04:01:56.986Z,8.93
2018-11-02T04:04:25.428Z,9.10
2018-11-02T04:06:53.899Z,9.60
2018-11-02T04:09:22.378Z,9.60
2018-11-02T04:11:51.010Z,8.87
2018-11-02T04:14:19.462Z,9.80
2018-11-02T04:16:47.934Z,8.43
2018-11-02T04:19:16.387Z,8.53
2018-11-02T04:21:47.060Z,8.53
2018-11-02T04:24:15.513Z,9.13
2018-11-02T04:26:44.018Z,8.40
2018-11-02T04:29:13.836Z,8.53
2018-11-02T04:31:42.998Z,8.47
2018-11-02T04:34:11.733Z,9.23
2018-11-02T04:36:40.213Z,8.97
2018-11-02T04:39:11.006Z,9.13
2018-11-02T04:41:39.623Z,9.23
2018-11-02T04:44:08.990Z,8.83
2018-11-02T04:46:38.217Z,8.50
2018-11-02T04:49:07.705Z,10.17
2018-11-02T04:51:36.183Z,10.07
2018-11-02T04:54:05.030Z,9.33
2018-11-02T04:56:34.046Z,10.00
2018-11-02T04:59:02.503Z,10.53
2018-11-02T05:01:30.958Z,11.00
2018-11-02T05:03:59.582Z,12.10
2018-11-02T05:06:28.127Z,12.63
2018-11-02T05:08:56.714Z,12.70
2018-11-02T05:11:25.194Z,13.90
2018-11-02T05:13:53.824Z,14.17
2018-11-02T05:16:22.270Z,15.30
2018-11-02T05:18:50.709Z,14.83
2018-11-02T05:21:19.287Z,16.83
2018-11-02T05:23:47.794Z,17.50
2018-11-02T05:26:16.259Z,16.63
2018-11-02T05:28:44.878Z,17.97
2018-11-02T05:31:13.334Z,19.47
2018-11-02T05:33:41.838Z,20.03
2018-11-02T05:36:10.315Z,20.17
2018-11-02T05:38:38.761Z,20.47
2018-11-02T05:41:07.191Z,20.27
2018-11-02T05:43:35.678Z,19.43
2018-11-02T05:46:05.030Z,20.43
2018-11-02T05:48:33.537Z,21.57
2018-11-02T05:51:01.995Z,23.10
2018-11-02T05:53:30.486Z,22.13
2018-11-02T05:55:58.955Z,23.77
2018-11-02T05:58:27.437Z,24.47
2018-11-02T06:00:55.936Z,25.87
2018-11-02T06:03:24.413Z,25.17
2018-11-02T06:05:52.838Z,24.07
2018-11-02T06:08:21.299Z,25.20
2018-11-02T06:10:49.742Z,24.57
2018-11-02T06:13:18.205Z,24.97
2018-11-02T06:15:46.725Z,24.50
2018-11-02T06:18:15.397Z,25.37
2018-11-02T06:20:43.838Z,24.67
2018-11-02T06:23:12.316Z,24.57
2018-11-02T06:25:40.850Z,25.10
2018-11-02T06:28:09.490Z,24.37
2018-11-02T06:30:37.974Z,24.90
2018-11-02T06:33:06.793Z,23.90
2018-11-02T06:35:35.401Z,24.23
2018-11-02T06:38:03.870Z,24.07
2018-11-02T06:40:32.319Z,24.27
2018-11-02T06:43:00.783Z,24.20
2018-11-02T06:45:29.235Z,24.17
2018-11-02T06:47:57.698Z,23.07
2018-11-02T06:50:26.137Z,23.37
2018-11-02T06:52:54.613Z,23.37
2018-11-02T06:55:23.059Z,23.37
2018-11-02T06:57:51.521Z,25.47
2018-11-02T07:00:20.361Z,22.53
2018-11-02T07:02:49.398Z,23.07
2018-11-02T07:05:17.847Z,21.63
2018-11-02T07:07:46.342Z,20.60
2018-11-02T07:10:14.946Z,20.87
2018-11-02T07:12:43.460Z,20.60
2018-11-02T07:15:11.922Z,22.33
2018-11-02T07:17:40.397Z,21.47
2018-11-02T07:20:09.266Z,20.90
2018-11-02T07:22:37.745Z,19.53
2018-11-02T07:25:07.015Z,18.10
2018-11-02T07:27:35.974Z,17.47
2018-11-02T07:30:05.081Z,15.43
2018-11-02T07:32:33.555Z,16.40
2018-11-02T07:35:02.008Z,18.97
2018-11-02T07:37:30.474Z,18.07
2018-11-02T07:39:59.101Z,19.20
2018-11-02T07:42:28.385Z,22.10
2018-11-02T07:44:56.850Z,22.43
2018-11-02T07:47:25.328Z,21.77
2018-11-02T07:49:53.963Z,20.77
2018-11-02T07:52:36.966Z,20.53
2018-11-02T07:55:07.757Z,21.00
2018-11-02T07:57:36.387Z,22.70
2018-11-02T08:00:05.416Z,23.00
2018-11-02T08:02:33.889Z,22.83
2018-11-02T08:05:02.558Z,23.13
2018-11-02T08:07:31.180Z,23.37
2018-11-02T08:09:59.644Z,23.33
2018-11-02T08:12:28.066Z,23.10
2018-11-02T08:14:56.578Z,23.60
2018-11-02T08:17:25.108Z,21.40
2018-11-02T08:19:53.738Z,21.87
2018-11-02T08:22:22.182Z,21.70
2018-11-02T08:24:50.710Z,21.00
2018-11-02T08:27:19.138Z,20.47
2018-11-02T08:29:47.630Z,19.70
2018-11-02T08:32:16.114Z,18.83
2018-11-02T08:34:44.725Z,19.67
2018-11-02T08:37:13.151Z,21.67
2018-11-02T08:39:41.605Z,21.03
2018-11-02T08:42:10.050Z,18.97
2018-11-02T08:44:38.521Z,18.83
2018-11-02T08:47:07.089Z,18.90
2018-11-02T08:49:35.586Z,16.77
2018-11-02T08:52:04.677Z,16.80
2018-11-02T08:54:33.304Z,16.03
2018-11-02T08:57:01.743Z,15.43
2018-11-02T08:59:30.354Z,16.17
2018-11-02T09:01:59.069Z,14.70
2018-11-02T09:04:27.525Z,16.43
2018-11-02T09:06:56.351Z,15.40
2018-11-02T09:09:24.806Z,13.03
2018-11-02T09:11:53.345Z,12.57
2018-11-02T09:14:22.608Z,12.47
2018-11-02T09:16:51.073Z,12.43
2018-11-02T09:19:19.552Z,12.73
2018-11-02T09:21:48.225Z,13.00
2018-11-02T09:24:17.100Z,11.77
2018-11-02T09:26:45.922Z,11.50
2018-11-02T09:29:14.374Z,9.97
2018-11-02T09:31:42.830Z,9.03
2018-11-02T09:34:11.318Z,8.30
2018-11-02T09:36:39.781Z,7.93
2018-11-02T09:39:10.942Z,8.10
2018-11-02T09:41:39.385Z,8.87
2018-11-02T09:44:07.857Z,7.17
2018-11-02T09:46:36.793Z,6.47
2018-11-02T09:49:05.917Z,6.07
2018-11-02T09:51:34.680Z,6.67
2018-11-02T09:54:03.266Z,6.77
2018-11-02T09:56:31.706Z,6.67
2018-11-02T09:59:00.345Z,5.90
2018-11-02T10:01:29.043Z,6.73
2018-11-02T10:03:57.525Z,5.97
2018-11-02T10:06:26.012Z,5.20
2018-11-02T10:08:54.479Z,5.00
2018-11-02T10:11:23.319Z,5.30
2018-11-02T10:13:51.864Z,5.13
2018-11-02T10:16:20.567Z,4.80
2018-11-02T10:18:49.044Z,4.60
2018-11-02T10:21:17.535Z,5.10
2018-11-02T10:23:46.190Z,4.70
2018-11-02T10:26:15.225Z,5.27
2018-11-02T10:28:43.749Z,5.63
2018-11-02T10:31:12.465Z,4.97
2018-11-02T10:33:40.997Z,5.10
2018-11-02T10:36:09.572Z,4.60
2018-11-02T10:38:38.185Z,5.37
2018-11-02T10:41:06.962Z,4.63
2018-11-02T10:43:36.117Z,4.73
2018-11-02T10:46:04.846Z,4.50
2018-11-02T10:48:33.309Z,3.70
2018-11-02T10:51:01.837Z,4.33
2018-11-02T10:53:30.443Z,3.80
2018-11-02T10:55:58.931Z,4.10
2018-11-02T10:58:27.581Z,4.40
2018-11-02T11:01:01.441Z,4.20
2018-11-02T11:03:29.942Z,3.90
2018-11-02T11:05:58.438Z,4.17
2018-11-02T11:08:26.910Z,4.70
2018-11-02T11:10:55.413Z,14.13
2018-11-02T11:13:26.144Z,3.60
2018-11-02T11:15:54.530Z,2.97
2018-11-02T11:18:23.014Z,3.37
2018-11-02T11:20:51.490Z,3.43
2018-11-02T11:23:20.446Z,4.20
2018-11-02T11:25:48.931Z,5.03
2018-11-02T11:28:17.756Z,4.30
2018-11-02T11:30:46.421Z,4.60
2018-11-02T11:33:15.214Z,6.30
2018-11-02T11:35:43.890Z,5.10
2018-11-02T11:38:12.378Z,6.00
2018-11-02T11:40:41.044Z,6.60
2018-11-02T11:43:09.665Z,7.67
2018-11-02T11:45:38.481Z,6.83
2018-11-02T11:48:07.307Z,6.47
2018-11-02T11:50:37.174Z,7.17
2018-11-02T11:53:06.162Z,7.33
2018-11-02T11:55:34.987Z,7.10
2018-11-02T11:58:03.833Z,8.07
2018-11-02T12:00:32.319Z,7.27
2018-11-02T12:03:00.766Z,7.20
2018-11-02T12:05:29.225Z,7.97
2018-11-02T12:07:57.873Z,8.13
2018-11-02T12:10:26.368Z,7.10
2018-11-02T12:12:55.362Z,7.47
2018-11-02T12:15:24.280Z,6.27
2018-11-02T12:17:52.944Z,6.90
2018-11-02T12:20:24.186Z,6.73
2018-11-02T12:22:54.263Z,6.40
2018-11-02T12:25:22.937Z,5.77
2018-11-02T12:27:51.755Z,5.30
2018-11-02T12:30:20.413Z,5.90
2018-11-02T12:32:48.893Z,5.03
2018-11-02T12:35:18.277Z,4.13
2018-11-02T12:37:46.740Z,3.80
2018-11-02T12:40:19.338Z,3.97
2018-11-02T12:42:48.802Z,3.73
2018-11-02T12:45:18.610Z,3.10
2018-11-02T12:47:48.364Z,3.10
2018-11-02T12:50:19.496Z,2.90
2018-11-02T12:52:49.041Z,2.00
2018-11-02T12:55:18.135Z,2.13
2018-11-02T12:57:46.691Z,2.13
2018-11-02T13:00:24.076Z,2.20
2018-11-02T13:02:53.134Z,1.90
2018-11-02T13:05:22.902Z,2.27
2018-11-02T13:07:52.470Z,2.17
2018-11-02T13:10:22.706Z,2.40
2018-11-02T13:12:51.348Z,2.53
2018-11-02T13:15:21.820Z,2.00
2018-11-02T13:17:51.003Z,2.23
2018-11-02T13:20:19.811Z,1.93
2018-11-02T13:22:49.254Z,1.90
2018-11-02T13:25:19.084Z,2.00
2018-11-02T13:27:48.578Z,2.43
2018-11-02T13:30:17.105Z,2.50
2018-11-02T13:32:45.682Z,3.27
2018-11-02T13:35:16.120Z,2.50
2018-11-02T13:37:45.237Z,2.97
2018-11-02T13:40:17.389Z,3.07
2018-11-02T13:42:46.432Z,2.87
2018-11-02T13:45:16.597Z,2.77
2018-11-02T13:47:46.072Z,2.77
2018-11-02T13:50:14.816Z,3.00
2018-11-02T13:52:43.926Z,2.97
2018-11-02T13:55:13.692Z,2.77
2018-11-02T13:57:42.593Z,3.30
2018-11-02T14:00:14.234Z,3.70
2018-11-02T14:02:42.762Z,3.30
2018-11-02T14:05:17.749Z,3.43
2018-11-02T14:07:46.427Z,3.77
2018-11-02T14:10:14.917Z,3.63
2018-11-02T14:12:43.664Z,3.77
2018-11-02T14:15:13.807Z,3.70
2018-11-02T14:17:42.901Z,5.13
2018-11-02T14:20:12.185Z,6.33
2018-11-02T14:22:40.778Z,6.73
2018-11-02T14:25:12.474Z,6.57
2018-11-02T14:27:41.253Z,5.27
2018-11-02T14:30:12.450Z,5.67
2018-11-02T14:32:40.964Z,5.97
2018-11-02T14:35:10.441Z,6.60
2018-11-02T14:37:38.949Z,6.67
2018-11-02T14:40:08.630Z,7.03
2018-11-02T14:42:37.863Z,7.20
2018-11-02T14:45:09.065Z,7.63
2018-11-02T14:47:43.738Z,8.27
2018-11-02T14:50:12.668Z,8.93
2018-11-02T14:52:47.077Z,8.33
2018-11-02T14:55:15.897Z,8.73
2018-11-02T14:57:44.598Z,8.33
2018-11-02T15:00:13.232Z,9.37
2018-11-02T15:02:42.685Z,9.87
2018-11-02T15:05:12.463Z,10.50
2018-11-02T15:07:41.614Z,10.83
2018-11-02T15:10:10.108Z,10.27
2018-11-02T15:12:39.038Z,9.30
2018-11-02T15:15:08.520Z,9.13
2018-11-02T15:17:37.008Z,9.53
2018-11-02T15:20:07.553Z,10.03
2018-11-02T15:22:36.027Z,10.87
2018-11-02T15:25:05.118Z,11.37
2018-11-02T15:27:33.990Z,22.33
2018-11-02T15:30:02.796Z,15.67
2018-11-02T15:32:31.375Z,14.10
2018-11-02T15:34:59.845Z,10.60
2018-11-02T15:37:28.477Z,10.80
2018-11-02T15:39:57.122Z,10.83
2018-11-02T15:42:25.753Z,10.47
2018-11-02T15:44:54.223Z,11.07
2018-11-02T15:47:23.599Z,9.70
2018-11-02T15:49:52.061Z,10.27
2018-11-02T15:52:20.525Z,10.73
2018-11-02T15:54:49.166Z,9.10
2018-11-02T15:57:17.626Z,9.87
2018-11-02T15:59:46.108Z,9.73
2018-11-02T16:02:14.721Z,9.93
2018-11-02T16:04:43.209Z,10.27
2018-11-02T16:07:11.840Z,9.10
2018-11-02T16:09:40.502Z,10.03
2018-11-02T16:12:09.170Z,10.57
2018-11-02T16:14:37.946Z,10.43
2018-11-02T16:17:06.906Z,10.47
2018-11-02T16:19:35.576Z,10.50
2018-11-02T16:22:04.053Z,9.50
2018-11-02T16:24:32.702Z,9.93
2018-11-02T16:27:01.675Z,8.37
2018-11-02T16:29:30.149Z,8.33
2018-11-02T16:31:58.605Z,8.97
2018-11-02T16:34:27.075Z,9.20
2018-11-02T16:36:55.534Z,8.93
2018-11-02T16:39:24.174Z,8.50
2018-11-02T16:41:52.749Z,9.70
2018-11-02T16:44:21.336Z,11.30
2018-11-02T16:46:56.670Z,10.20
2018-11-02T16:49:33.202Z,10.43
2018-11-02T16:52:01.758Z,11.30
2018-11-02T16:54:30.501Z,10.83
2018-11-02T16:56:59.777Z,10.93
2018-11-02T16:59:28.414Z,11.17
2018-11-02T17:01:56.878Z,11.43
2018-11-02T17:04:25.366Z,11.50
2018-11-02T17:06:53.841Z,10.80
2018-11-02T17:09:30.488Z,12.70
2018-11-02T17:11:59.091Z,11.73
2018-11-02T17:14:27.645Z,11.23
2018-11-02T17:16:56.106Z,11.17
2018-11-02T17:19:24.571Z,11.10
2018-11-02T17:21:53.130Z,10.50
2018-11-02T17:24:21.710Z,10.00
2018-11-02T17:26:53.841Z,11.00
2018-11-02T17:29:22.518Z,10.43
2018-11-02T17:31:51.053Z,10.07
2018-11-02T17:34:21.158Z,10.53
2018-11-02T17:36:49.689Z,10.00
2018-11-02T17:39:18.138Z,10.23
2018-11-02T17:41:55.621Z,11.10
2018-11-02T17:44:24.238Z,10.13
2018-11-02T17:46:53.021Z,10.73
2018-11-02T17:49:23.930Z,11.47
2018-11-02T17:51:52.598Z,11.93
2018-11-02T17:54:22.283Z,9.90
2018-11-02T17:56:51.012Z,10.37
2018-11-02T17:59:19.684Z,11.97
2018-11-02T18:01:48.287Z,10.50
2018-11-02T18:04:16.738Z,11.73
2018-11-02T18:06:45.190Z,10.33
2018-11-02T18:09:13.702Z,11.87
2018-11-02T18:11:42.216Z,10.40
2018-11-02T18:14:10.775Z,10.10
2018-11-02T18:16:39.430Z,11.13
2018-11-02T18:19:07.876Z,11.50
2018-11-02T18:21:36.506Z,10.83
2018-11-02T18:24:05.370Z,9.50
2018-11-02T18:26:34.030Z,10.23
2018-11-02T18:29:02.651Z,10.30
2018-11-02T18:31:31.115Z,10.53
2018-11-02T18:33:59.558Z,10.77
2018-11-02T18:36:28.047Z,13.00
2018-11-02T18:38:56.490Z,11.73
2018-11-02T18:41:25.122Z,11.43
2018-11-02T18:43:53.741Z,11.67
2018-11-02T18:46:22.381Z,12.93
2018-11-02T18:48:50.830Z,16.07
2018-11-02T18:51:19.489Z,17.83
2018-11-02T18:53:47.926Z,17.93
2018-11-02T18:56:16.578Z,19.93
2018-11-02T18:58:45.002Z,20.50
2018-11-02T19:01:13.464Z,19.37
2018-11-02T19:03:42.171Z,17.57
2018-11-02T19:06:10.809Z,16.27
2018-11-02T19:08:39.261Z,16.07
2018-11-02T19:11:07.922Z,15.33
2018-11-02T19:13:36.587Z,14.43
2018-11-02T19:16:06.281Z,13.73
2018-11-02T19:18:34.726Z,14.47
2018-11-02T19:21:03.170Z,14.50
2018-11-02T19:23:31.806Z,14.53
2018-11-02T19:26:00.266Z,15.17
2018-11-02T19:28:28.710Z,14.80
2018-11-02T19:30:57.250Z,13.87
2018-11-02T19:33:28.610Z,13.60
2018-11-02T19:36:00.312Z,14.33
2018-11-02T19:38:29.587Z,13.53
2018-11-02T19:40:58.254Z,15.67
2018-11-02T19:43:26.753Z,16.20
2018-11-02T19:45:55.387Z,17.60
2018-11-02T19:48:24.227Z,18.23
2018-11-02T19:50:52.786Z,17.50
2018-11-02T19:53:21.634Z,17.63
2018-11-02T19:55:50.299Z,18.43
2018-11-02T19:58:19.001Z,17.97
2018-11-02T20:00:47.703Z,16.93
2018-11-02T20:03:16.322Z,18.37
2018-11-02T20:05:44.943Z,17.37
2018-11-02T20:08:13.417Z,18.07
2018-11-02T20:10:41.855Z,17.30
2018-11-02T20:13:10.342Z,18.30
2018-11-02T20:15:38.790Z,17.03
2018-11-02T20:18:07.275Z,16.67
2018-11-02T20:20:35.857Z,17.93
2018-11-02T20:23:04.737Z,17.93
2018-11-02T20:25:33.214Z,16.33
2018-11-02T20:28:01.706Z,17.03
2018-11-02T20:30:30.329Z,17.03
2018-11-02T20:32:58.835Z,15.80
2018-11-02T20:35:27.406Z,16.97
2018-11-02T20:37:55.877Z,35.07
2018-11-02T20:40:24.345Z,49.23
2018-11-02T20:42:52.850Z,76.90
2018-11-02T20:45:21.334Z,59.87
2018-11-02T20:47:51.235Z,52.33
2018-11-02T20:50:20.081Z,40.03
2018-11-02T20:52:49.018Z,31.47
2018-11-02T20:55:18.071Z,24.73
2018-11-02T20:57:46.714Z,23.50
2018-11-02T21:00:21.569Z,18.97
2018-11-02T21:02:50.913Z,16.20
2018-11-02T21:05:20.472Z,16.87
2018-11-02T21:07:49.489Z,18.10
2018-11-02T21:10:19.182Z,17.63
2018-11-02T21:12:47.932Z,19.03
2018-11-02T21:15:18.150Z,18.13
2018-11-02T21:17:47.221Z,18.40
2018-11-02T21:20:17.133Z,16.43
2018-11-02T21:22:45.696Z,16.37
2018-11-02T21:25:14.933Z,15.17
2018-11-02T21:27:44.205Z,16.33
2018-11-02T21:30:16.040Z,16.27
2018-11-02T21:32:45.451Z,16.47
2018-11-02T21:35:14.615Z,16.50
2018-11-02T21:37:43.307Z,15.80
2018-11-02T21:40:15.254Z,15.37
2018-11-02T21:42:44.118Z,14.90
2018-11-02T21:45:14.675Z,15.17
2018-11-02T21:47:43.565Z,15.10
2018-11-02T21:50:12.730Z,17.63
2018-11-02T21:52:41.182Z,16.43
2018-11-02T21:55:10.093Z,15.83
2018-11-02T21:57:39.138Z,14.33
2018-11-02T22:00:09.897Z,15.13
2018-11-02T22:02:39.688Z,14.00
2018-11-02T22:05:10.190Z,14.03
2018-11-02T22:07:38.769Z,14.57
2018-11-02T22:10:08.925Z,13.50
2018-11-02T22:12:37.790Z,14.70
2018-11-02T22:15:07.373Z,15.40
2018-11-02T22:17:35.879Z,20.17
2018-11-02T22:20:06.177Z,19.13
2018-11-02T22:22:34.642Z,16.00
2018-11-02T22:25:03.095Z,16.03
2018-11-02T22:27:31.555Z,17.67
2018-11-02T22:30:00.193Z,16.60
2018-11-02T22:32:28.822Z,17.30
2018-11-02T22:34:57.322Z,16.03
2018-11-02T22:37:25.780Z,15.97
2018-11-02T22:39:54.243Z,16.40
2018-11-02T22:42:22.878Z,21.40
2018-11-02T22:44:51.358Z,27.97
2018-11-02T22:47:19.830Z,25.50
2018-11-02T22:49:48.322Z,23.10
2018-11-02T22:52:16.757Z,22.60
2018-11-02T22:54:45.241Z,22.13
2018-11-02T22:57:13.686Z,23.47
2018-11-02T22:59:42.355Z,21.00
2018-11-02T23:02:10.926Z,21.90
2018-11-02T23:04:39.437Z,22.17
2018-11-02T23:07:08.087Z,22.03
2018-11-02T23:09:37.275Z,18.53
2018-11-02T23:12:06.533Z,19.20
2018-11-02T23:14:35.316Z,18.27
2018-11-02T23:17:03.876Z,18.97
2018-11-02T23:19:32.581Z,18.77
2018-11-02T23:22:01.186Z,18.47
2018-11-02T23:24:29.790Z,17.77
2018-11-02T23:26:58.469Z,18.03
2018-11-02T23:29:27.194Z,16.97
2018-11-02T23:31:55.765Z,17.10
2018-11-02T23:34:24.288Z,17.03
2018-11-02T23:36:52.766Z,17.37
2018-11-02T23:39:21.418Z,18.47
2018-11-02T23:41:51.159Z,17.63
2018-11-02T23:44:19.656Z,16.63
2018-11-02T23:46:48.138Z,16.40
2018-11-02T23:49:16.629Z,18.60
2018-11-02T23:51:45.318Z,17.97
2018-11-02T23:54:13.794Z,18.07
2018-11-02T23:56:42.490Z,16.43
2018-11-02T23:59:11.026Z,16.73
